sensor_id;sensor_type;location;lat;lon;timestamp;temperature;humidity
52963;DHT22;38827;53.024;6.596;2022-12-17T00:01:25;-0.70;86.20
52963;DHT22;38827;53.024;6.596;2022-12-17T00:04:09;-0.70;86.50
52963;DHT22;38827;53.024;6.596;2022-12-17T00:06:54;-0.70;86.60
52963;DHT22;38827;53.024;6.596;2022-12-17T00:09:38;-0.60;86.60
52963;DHT22;38827;53.024;6.596;2022-12-17T00:12:23;-0.60;86.40
52963;DHT22;38827;53.024;6.596;2022-12-17T00:15:07;-0.60;86.50
52963;DHT22;38827;53.024;6.596;2022-12-17T00:17:51;-0.60;86.60
52963;DHT22;38827;53.024;6.596;2022-12-17T00:20:36;-0.60;86.70
52963;DHT22;38827;53.024;6.596;2022-12-17T00:23:23;-0.60;86.80
52963;DHT22;38827;53.024;6.596;2022-12-17T00:26:07;-0.50;86.60
52963;DHT22;38827;53.024;6.596;2022-12-17T00:28:51;-0.50;86.70
52963;DHT22;38827;53.024;6.596;2022-12-17T00:31:35;-0.60;86.70
52963;DHT22;38827;53.024;6.596;2022-12-17T00:34:19;-0.50;86.70
52963;DHT22;38827;53.024;6.596;2022-12-17T00:37:07;-0.60;86.80
52963;DHT22;38827;53.024;6.596;2022-12-17T00:39:51;-0.50;86.90
52963;DHT22;38827;53.024;6.596;2022-12-17T00:42:35;-0.50;86.80
52963;DHT22;38827;53.024;6.596;2022-12-17T00:45:19;-0.60;86.70
52963;DHT22;38827;53.024;6.596;2022-12-17T00:48:04;-0.60;86.70
52963;DHT22;38827;53.024;6.596;2022-12-17T00:50:48;-0.60;86.80
52963;DHT22;38827;53.024;6.596;2022-12-17T00:53:33;-0.60;86.80
52963;DHT22;38827;53.024;6.596;2022-12-17T00:56:17;-0.60;86.70
52963;DHT22;38827;53.024;6.596;2022-12-17T00:59:01;-0.70;86.80
52963;DHT22;38827;53.024;6.596;2022-12-17T01:01:45;-0.80;86.80
52963;DHT22;38827;53.024;6.596;2022-12-17T01:04:30;-0.80;86.90
52963;DHT22;38827;53.024;6.596;2022-12-17T01:07:14;-0.80;87.00
52963;DHT22;38827;53.024;6.596;2022-12-17T01:09:58;-0.80;87.00
52963;DHT22;38827;53.024;6.596;2022-12-17T01:12:43;-0.70;87.00
52963;DHT22;38827;53.024;6.596;2022-12-17T01:15:27;-0.70;87.00
52963;DHT22;38827;53.024;6.596;2022-12-17T01:18:21;-0.70;87.10
52963;DHT22;38827;53.024;6.596;2022-12-17T01:21:05;-0.60;87.30
52963;DHT22;38827;53.024;6.596;2022-12-17T01:23:49;-0.60;87.10
52963;DHT22;38827;53.024;6.596;2022-12-17T01:26:33;-0.60;86.90
52963;DHT22;38827;53.024;6.596;2022-12-17T01:29:17;-0.60;87.00
52963;DHT22;38827;53.024;6.596;2022-12-17T01:32:01;-0.60;86.90
52963;DHT22;38827;53.024;6.596;2022-12-17T01:34:46;-0.60;87.10
52963;DHT22;38827;53.024;6.596;2022-12-17T01:37:31;-0.50;86.90
52963;DHT22;38827;53.024;6.596;2022-12-17T01:40:15;-0.50;86.80
52963;DHT22;38827;53.024;6.596;2022-12-17T01:43:00;-0.60;86.40
52963;DHT22;38827;53.024;6.596;2022-12-17T01:45:46;-0.60;86.60
52963;DHT22;38827;53.024;6.596;2022-12-17T01:48:43;-0.60;86.70
52963;DHT22;38827;53.024;6.596;2022-12-17T01:51:30;-0.70;86.60
52963;DHT22;38827;53.024;6.596;2022-12-17T01:54:15;-0.70;86.50
52963;DHT22;38827;53.024;6.596;2022-12-17T01:57:01;-0.70;86.70
52963;DHT22;38827;53.024;6.596;2022-12-17T01:59:56;-0.70;86.80
52963;DHT22;38827;53.024;6.596;2022-12-17T02:02:41;-0.60;86.90
52963;DHT22;38827;53.024;6.596;2022-12-17T02:05:44;-0.60;86.70
52963;DHT22;38827;53.024;6.596;2022-12-17T02:14:45;-0.70;86.50
52963;DHT22;38827;53.024;6.596;2022-12-17T02:17:39;-0.60;86.60
52963;DHT22;38827;53.024;6.596;2022-12-17T02:20:53;-0.70;86.50
52963;DHT22;38827;53.024;6.596;2022-12-17T02:23:55;-0.60;86.50
52963;DHT22;38827;53.024;6.596;2022-12-17T02:26:51;-0.60;86.60
52963;DHT22;38827;53.024;6.596;2022-12-17T02:29:43;-0.60;86.60
52963;DHT22;38827;53.024;6.596;2022-12-17T02:32:29;-0.60;86.50
52963;DHT22;38827;53.024;6.596;2022-12-17T02:35:16;-0.60;86.50
52963;DHT22;38827;53.024;6.596;2022-12-17T02:38:01;-0.60;86.50
52963;DHT22;38827;53.024;6.596;2022-12-17T02:40:46;-0.50;86.50
52963;DHT22;38827;53.024;6.596;2022-12-17T02:43:32;-0.50;86.40
52963;DHT22;38827;53.024;6.596;2022-12-17T02:46:18;-0.50;86.40
52963;DHT22;38827;53.024;6.596;2022-12-17T02:49:03;-0.50;86.20
52963;DHT22;38827;53.024;6.596;2022-12-17T02:51:48;-0.50;86.30
52963;DHT22;38827;53.024;6.596;2022-12-17T02:54:33;-0.50;86.30
52963;DHT22;38827;53.024;6.596;2022-12-17T02:57:18;-0.50;86.30
52963;DHT22;38827;53.024;6.596;2022-12-17T03:00:04;-0.50;86.30
52963;DHT22;38827;53.024;6.596;2022-12-17T03:02:48;-0.40;86.30
52963;DHT22;38827;53.024;6.596;2022-12-17T03:05:32;-0.40;86.20
52963;DHT22;38827;53.024;6.596;2022-12-17T03:08:17;-0.40;86.20
52963;DHT22;38827;53.024;6.596;2022-12-17T03:11:01;-0.40;86.30
52963;DHT22;38827;53.024;6.596;2022-12-17T03:13:45;-0.40;86.20
52963;DHT22;38827;53.024;6.596;2022-12-17T03:16:29;-0.40;86.30
52963;DHT22;38827;53.024;6.596;2022-12-17T03:19:13;-0.40;86.20
52963;DHT22;38827;53.024;6.596;2022-12-17T03:21:58;-0.40;86.20
52963;DHT22;38827;53.024;6.596;2022-12-17T03:24:42;-0.40;86.30
52963;DHT22;38827;53.024;6.596;2022-12-17T03:27:26;-0.40;86.20
52963;DHT22;38827;53.024;6.596;2022-12-17T03:30:11;-0.40;86.20
52963;DHT22;38827;53.024;6.596;2022-12-17T03:32:55;-0.40;86.20
52963;DHT22;38827;53.024;6.596;2022-12-17T03:35:39;-0.40;86.30
52963;DHT22;38827;53.024;6.596;2022-12-17T03:38:27;-0.40;86.30
52963;DHT22;38827;53.024;6.596;2022-12-17T03:41:17;-0.30;86.30
52963;DHT22;38827;53.024;6.596;2022-12-17T03:44:01;-0.30;86.20
52963;DHT22;38827;53.024;6.596;2022-12-17T03:46:45;-0.30;86.10
52963;DHT22;38827;53.024;6.596;2022-12-17T03:49:29;-0.40;86.10
52963;DHT22;38827;53.024;6.596;2022-12-17T03:52:14;-0.40;86.10
52963;DHT22;38827;53.024;6.596;2022-12-17T03:54:58;-0.40;86.20
52963;DHT22;38827;53.024;6.596;2022-12-17T03:57:42;-0.40;86.20
52963;DHT22;38827;53.024;6.596;2022-12-17T04:00:27;-0.40;86.20
52963;DHT22;38827;53.024;6.596;2022-12-17T04:03:11;-0.40;86.30
52963;DHT22;38827;53.024;6.596;2022-12-17T04:05:55;-0.50;86.30
52963;DHT22;38827;53.024;6.596;2022-12-17T04:08:39;-0.50;86.40
52963;DHT22;38827;53.024;6.596;2022-12-17T04:11:23;-0.50;86.40
52963;DHT22;38827;53.024;6.596;2022-12-17T04:14:08;-0.50;86.40
52963;DHT22;38827;53.024;6.596;2022-12-17T04:16:52;-0.40;86.40
52963;DHT22;38827;53.024;6.596;2022-12-17T04:19:36;-0.40;86.30
52963;DHT22;38827;53.024;6.596;2022-12-17T04:22:20;-0.40;86.40
52963;DHT22;38827;53.024;6.596;2022-12-17T04:25:05;-0.40;86.50
52963;DHT22;38827;53.024;6.596;2022-12-17T04:27:49;-0.40;86.50
52963;DHT22;38827;53.024;6.596;2022-12-17T04:30:33;-0.40;86.50
52963;DHT22;38827;53.024;6.596;2022-12-17T04:33:17;-0.30;86.50
52963;DHT22;38827;53.024;6.596;2022-12-17T04:36:02;-0.40;86.50
52963;DHT22;38827;53.024;6.596;2022-12-17T04:38:46;-0.40;86.40
52963;DHT22;38827;53.024;6.596;2022-12-17T04:41:30;-0.40;86.60
52963;DHT22;38827;53.024;6.596;2022-12-17T04:44:15;-0.40;86.50
52963;DHT22;38827;53.024;6.596;2022-12-17T04:46:59;-0.50;86.50
52963;DHT22;38827;53.024;6.596;2022-12-17T04:49:44;-0.50;86.60
52963;DHT22;38827;53.024;6.596;2022-12-17T04:52:27;-0.50;86.60
52963;DHT22;38827;53.024;6.596;2022-12-17T04:55:12;-0.60;86.60
52963;DHT22;38827;53.024;6.596;2022-12-17T04:58:03;-0.60;86.80
52963;DHT22;38827;53.024;6.596;2022-12-17T05:00:50;-0.60;86.80
52963;DHT22;38827;53.024;6.596;2022-12-17T05:03:35;-0.50;86.80
52963;DHT22;38827;53.024;6.596;2022-12-17T05:06:19;-0.50;86.70
52963;DHT22;38827;53.024;6.596;2022-12-17T05:09:03;-0.50;86.80
52963;DHT22;38827;53.024;6.596;2022-12-17T05:11:48;-0.40;86.60
52963;DHT22;38827;53.024;6.596;2022-12-17T05:14:32;-0.50;86.60
52963;DHT22;38827;53.024;6.596;2022-12-17T05:17:16;-0.40;86.60
52963;DHT22;38827;53.024;6.596;2022-12-17T05:20:01;-0.40;86.40
52963;DHT22;38827;53.024;6.596;2022-12-17T05:22:45;-0.40;86.40
52963;DHT22;38827;53.024;6.596;2022-12-17T05:25:30;-0.40;86.40
52963;DHT22;38827;53.024;6.596;2022-12-17T05:28:14;-0.40;86.40
52963;DHT22;38827;53.024;6.596;2022-12-17T05:30:59;-0.40;86.30
52963;DHT22;38827;53.024;6.596;2022-12-17T05:33:43;-0.40;86.30
52963;DHT22;38827;53.024;6.596;2022-12-17T05:36:27;-0.30;86.30
52963;DHT22;38827;53.024;6.596;2022-12-17T05:39:12;-0.30;86.30
52963;DHT22;38827;53.024;6.596;2022-12-17T05:41:56;-0.30;86.10
52963;DHT22;38827;53.024;6.596;2022-12-17T05:44:40;-0.30;86.00
52963;DHT22;38827;53.024;6.596;2022-12-17T05:47:24;-0.30;86.00
52963;DHT22;38827;53.024;6.596;2022-12-17T05:50:08;-0.30;86.10
52963;DHT22;38827;53.024;6.596;2022-12-17T05:52:53;-0.20;86.10
52963;DHT22;38827;53.024;6.596;2022-12-17T05:55:37;-0.20;86.00
52963;DHT22;38827;53.024;6.596;2022-12-17T05:58:21;-0.20;85.80
52963;DHT22;38827;53.024;6.596;2022-12-17T06:01:06;-0.20;85.60
52963;DHT22;38827;53.024;6.596;2022-12-17T06:03:50;-0.20;85.60
52963;DHT22;38827;53.024;6.596;2022-12-17T06:06:34;-0.20;85.70
52963;DHT22;38827;53.024;6.596;2022-12-17T06:09:18;-0.10;85.80
52963;DHT22;38827;53.024;6.596;2022-12-17T06:12:04;-0.10;85.60
52963;DHT22;38827;53.024;6.596;2022-12-17T06:14:48;-0.10;85.50
52963;DHT22;38827;53.024;6.596;2022-12-17T06:17:32;-0.10;85.30
52963;DHT22;38827;53.024;6.596;2022-12-17T06:20:17;-0.10;85.10
52963;DHT22;38827;53.024;6.596;2022-12-17T06:23:03;-0.10;85.30
52963;DHT22;38827;53.024;6.596;2022-12-17T06:25:47;-0.10;85.50
52963;DHT22;38827;53.024;6.596;2022-12-17T06:28:31;-0.10;85.30
52963;DHT22;38827;53.024;6.596;2022-12-17T06:31:16;-0.10;85.10
52963;DHT22;38827;53.024;6.596;2022-12-17T06:34:00;-0.20;84.90
52963;DHT22;38827;53.024;6.596;2022-12-17T06:36:45;-0.20;85.00
52963;DHT22;38827;53.024;6.596;2022-12-17T06:39:29;-0.20;85.10
52963;DHT22;38827;53.024;6.596;2022-12-17T06:42:19;-0.20;85.20
52963;DHT22;38827;53.024;6.596;2022-12-17T06:45:04;-0.30;85.10
52963;DHT22;38827;53.024;6.596;2022-12-17T06:47:48;-0.30;85.00
52963;DHT22;38827;53.024;6.596;2022-12-17T06:50:40;-0.30;85.20
52963;DHT22;38827;53.024;6.596;2022-12-17T06:53:25;-0.30;85.30
52963;DHT22;38827;53.024;6.596;2022-12-17T06:56:09;-0.30;85.30
52963;DHT22;38827;53.024;6.596;2022-12-17T06:58:53;-0.30;85.20
52963;DHT22;38827;53.024;6.596;2022-12-17T07:01:38;-0.30;85.20
52963;DHT22;38827;53.024;6.596;2022-12-17T07:04:22;-0.40;85.00
52963;DHT22;38827;53.024;6.596;2022-12-17T07:07:06;-0.40;85.00
52963;DHT22;38827;53.024;6.596;2022-12-17T07:09:50;-0.40;85.00
52963;DHT22;38827;53.024;6.596;2022-12-17T07:12:38;-0.50;85.20
52963;DHT22;38827;53.024;6.596;2022-12-17T07:15:22;-0.50;85.30
52963;DHT22;38827;53.024;6.596;2022-12-17T07:18:07;-0.40;85.40
52963;DHT22;38827;53.024;6.596;2022-12-17T07:20:52;-0.50;85.30
52963;DHT22;38827;53.024;6.596;2022-12-17T07:23:36;-0.50;85.40
52963;DHT22;38827;53.024;6.596;2022-12-17T07:26:48;-0.50;85.30
52963;DHT22;38827;53.024;6.596;2022-12-17T07:29:32;-0.50;85.40
52963;DHT22;38827;53.024;6.596;2022-12-17T07:32:17;-0.50;85.50
52963;DHT22;38827;53.024;6.596;2022-12-17T07:35:01;-0.50;85.40
52963;DHT22;38827;53.024;6.596;2022-12-17T07:37:45;-0.50;85.40
52963;DHT22;38827;53.024;6.596;2022-12-17T07:40:29;-0.50;85.30
52963;DHT22;38827;53.024;6.596;2022-12-17T07:43:14;-0.50;85.30
52963;DHT22;38827;53.024;6.596;2022-12-17T07:46:12;-0.50;85.30
52963;DHT22;38827;53.024;6.596;2022-12-17T07:48:56;-0.60;85.30
52963;DHT22;38827;53.024;6.596;2022-12-17T07:51:41;-0.60;85.40
52963;DHT22;38827;53.024;6.596;2022-12-17T07:54:26;-0.70;85.40
52963;DHT22;38827;53.024;6.596;2022-12-17T07:57:19;-0.70;85.40
52963;DHT22;38827;53.024;6.596;2022-12-17T08:00:04;-0.70;85.50
52963;DHT22;38827;53.024;6.596;2022-12-17T08:02:56;-0.70;85.50
52963;DHT22;38827;53.024;6.596;2022-12-17T08:05:40;-0.70;85.50
52963;DHT22;38827;53.024;6.596;2022-12-17T08:08:25;-0.70;85.60
52963;DHT22;38827;53.024;6.596;2022-12-17T08:11:09;-0.70;85.50
52963;DHT22;38827;53.024;6.596;2022-12-17T08:13:53;-0.70;85.50
52963;DHT22;38827;53.024;6.596;2022-12-17T08:16:38;-0.70;85.50
52963;DHT22;38827;53.024;6.596;2022-12-17T08:19:22;-0.70;85.50
52963;DHT22;38827;53.024;6.596;2022-12-17T08:22:07;-0.70;85.50
52963;DHT22;38827;53.024;6.596;2022-12-17T08:24:51;-0.70;85.60
52963;DHT22;38827;53.024;6.596;2022-12-17T08:27:35;-0.70;85.50
52963;DHT22;38827;53.024;6.596;2022-12-17T08:30:19;-0.70;85.50
52963;DHT22;38827;53.024;6.596;2022-12-17T08:33:04;-0.70;85.70
52963;DHT22;38827;53.024;6.596;2022-12-17T08:35:56;-0.70;85.50
52963;DHT22;38827;53.024;6.596;2022-12-17T08:38:41;-0.70;85.50
52963;DHT22;38827;53.024;6.596;2022-12-17T08:41:26;-0.70;85.50
52963;DHT22;38827;53.024;6.596;2022-12-17T08:44:10;-0.80;85.60
52963;DHT22;38827;53.024;6.596;2022-12-17T08:46:55;-0.80;85.50
52963;DHT22;38827;53.024;6.596;2022-12-17T08:49:39;-0.80;85.60
52963;DHT22;38827;53.024;6.596;2022-12-17T08:52:27;-0.70;85.80
52963;DHT22;38827;53.024;6.596;2022-12-17T08:55:11;-0.70;85.70
52963;DHT22;38827;53.024;6.596;2022-12-17T08:57:57;-0.60;85.60
52963;DHT22;38827;53.024;6.596;2022-12-17T09:00:42;-0.60;85.60
52963;DHT22;38827;53.024;6.596;2022-12-17T09:03:27;-0.60;85.50
52963;DHT22;38827;53.024;6.596;2022-12-17T09:06:11;-0.60;85.60
52963;DHT22;38827;53.024;6.596;2022-12-17T09:08:58;-0.60;85.20
52963;DHT22;38827;53.024;6.596;2022-12-17T09:11:43;-0.60;85.20
52963;DHT22;38827;53.024;6.596;2022-12-17T09:14:27;-0.60;85.20
52963;DHT22;38827;53.024;6.596;2022-12-17T09:19:47;-0.60;85.40
52963;DHT22;38827;53.024;6.596;2022-12-17T09:22:31;-0.60;85.20
52963;DHT22;38827;53.024;6.596;2022-12-17T09:25:15;-0.50;85.30
52963;DHT22;38827;53.024;6.596;2022-12-17T09:28:02;-0.50;85.10
52963;DHT22;38827;53.024;6.596;2022-12-17T09:30:50;-0.50;85.00
52963;DHT22;38827;53.024;6.596;2022-12-17T09:33:34;-0.50;85.10
52963;DHT22;38827;53.024;6.596;2022-12-17T09:36:18;-0.50;84.90
52963;DHT22;38827;53.024;6.596;2022-12-17T09:39:03;-0.40;84.90
52963;DHT22;38827;53.024;6.596;2022-12-17T09:41:55;-0.40;84.70
52963;DHT22;38827;53.024;6.596;2022-12-17T09:44:59;-0.40;84.60
52963;DHT22;38827;53.024;6.596;2022-12-17T09:51:20;-0.40;84.60
52963;DHT22;38827;53.024;6.596;2022-12-17T09:54:05;-0.40;84.60
52963;DHT22;38827;53.024;6.596;2022-12-17T09:56:55;-0.40;84.60
52963;DHT22;38827;53.024;6.596;2022-12-17T09:59:40;-0.40;84.70
52963;DHT22;38827;53.024;6.596;2022-12-17T10:02:27;-0.40;84.80
52963;DHT22;38827;53.024;6.596;2022-12-17T10:05:25;-0.40;84.80
52963;DHT22;38827;53.024;6.596;2022-12-17T10:08:12;-0.40;84.40
52963;DHT22;38827;53.024;6.596;2022-12-17T10:11:08;-0.50;83.90
52963;DHT22;38827;53.024;6.596;2022-12-17T10:13:52;-0.50;84.30
52963;DHT22;38827;53.024;6.596;2022-12-17T10:16:45;-0.40;84.50
52963;DHT22;38827;53.024;6.596;2022-12-17T10:19:35;-0.40;84.40
52963;DHT22;38827;53.024;6.596;2022-12-17T10:22:22;-0.40;84.40
52963;DHT22;38827;53.024;6.596;2022-12-17T10:25:16;-0.30;84.40
52963;DHT22;38827;53.024;6.596;2022-12-17T10:28:10;-0.30;84.00
52963;DHT22;38827;53.024;6.596;2022-12-17T10:30:55;-0.30;84.10
52963;DHT22;38827;53.024;6.596;2022-12-17T10:33:40;-0.20;84.20
52963;DHT22;38827;53.024;6.596;2022-12-17T10:36:25;-0.20;84.00
52963;DHT22;38827;53.024;6.596;2022-12-17T10:39:27;-0.20;84.10
52963;DHT22;38827;53.024;6.596;2022-12-17T10:42:29;-0.20;83.80
52963;DHT22;38827;53.024;6.596;2022-12-17T10:45:20;-0.20;83.70
52963;DHT22;38827;53.024;6.596;2022-12-17T10:48:16;-0.10;84.00
52963;DHT22;38827;53.024;6.596;2022-12-17T10:51:18;0.00;83.90
52963;DHT22;38827;53.024;6.596;2022-12-17T10:54:09;0.00;83.80
52963;DHT22;38827;53.024;6.596;2022-12-17T10:56:58;0.10;83.60
52963;DHT22;38827;53.024;6.596;2022-12-17T11:00:00;0.10;83.20
52963;DHT22;38827;53.024;6.596;2022-12-17T11:02:46;0.10;83.20
52963;DHT22;38827;53.024;6.596;2022-12-17T11:05:34;0.10;83.20
52963;DHT22;38827;53.024;6.596;2022-12-17T11:08:19;0.20;83.20
52963;DHT22;38827;53.024;6.596;2022-12-17T11:11:09;0.30;83.10
52963;DHT22;38827;53.024;6.596;2022-12-17T11:13:54;0.40;82.80
52963;DHT22;38827;53.024;6.596;2022-12-17T11:16:54;0.50;82.60
52963;DHT22;38827;53.024;6.596;2022-12-17T11:20:19;0.60;82.50
52963;DHT22;38827;53.024;6.596;2022-12-17T11:23:07;0.80;82.20
52963;DHT22;38827;53.024;6.596;2022-12-17T11:26:11;0.80;82.10
52963;DHT22;38827;53.024;6.596;2022-12-17T11:28:58;0.80;81.40
52963;DHT22;38827;53.024;6.596;2022-12-17T11:37:55;1.00;81.40
52963;DHT22;38827;53.024;6.596;2022-12-17T11:40:42;1.00;81.30
52963;DHT22;38827;53.024;6.596;2022-12-17T11:43:42;1.20;81.30
52963;DHT22;38827;53.024;6.596;2022-12-17T11:46:48;1.30;81.30
52963;DHT22;38827;53.024;6.596;2022-12-17T11:50:39;1.30;80.90
52963;DHT22;38827;53.024;6.596;2022-12-17T11:53:12;1.40;80.40
52963;DHT22;38827;53.024;6.596;2022-12-17T11:58:51;1.40;80.00
52963;DHT22;38827;53.024;6.596;2022-12-17T12:01:45;1.40;80.20
52963;DHT22;38827;53.024;6.596;2022-12-17T12:13:56;1.70;79.50
52963;DHT22;38827;53.024;6.596;2022-12-17T12:17:07;1.60;79.10
52963;DHT22;38827;53.024;6.596;2022-12-17T12:26:18;1.60;78.80
52963;DHT22;38827;53.024;6.596;2022-12-17T12:35:52;1.60;79.30
52963;DHT22;38827;53.024;6.596;2022-12-17T12:38:54;1.70;79.20
52963;DHT22;38827;53.024;6.596;2022-12-17T12:45:03;1.80;78.70
52963;DHT22;38827;53.024;6.596;2022-12-17T12:48:10;1.80;78.80
52963;DHT22;38827;53.024;6.596;2022-12-17T12:51:19;1.90;78.00
52963;DHT22;38827;53.024;6.596;2022-12-17T12:57:34;1.70;77.60
52963;DHT22;38827;53.024;6.596;2022-12-17T13:00:51;1.60;78.00
52963;DHT22;38827;53.024;6.596;2022-12-17T13:06:44;1.70;78.30
52963;DHT22;38827;53.024;6.596;2022-12-17T13:24:48;1.30;78.50
52963;DHT22;38827;53.024;6.596;2022-12-17T13:29:53;1.40;78.60
52963;DHT22;38827;53.024;6.596;2022-12-17T13:32:29;1.30;78.50
52963;DHT22;38827;53.024;6.596;2022-12-17T13:41:07;1.30;78.80
52963;DHT22;38827;53.024;6.596;2022-12-17T13:43:41;1.30;78.70
52963;DHT22;38827;53.024;6.596;2022-12-17T13:46:21;1.20;78.60
52963;DHT22;38827;53.024;6.596;2022-12-17T13:49:02;1.10;79.00
52963;DHT22;38827;53.024;6.596;2022-12-17T13:51:30;1.10;79.20
52963;DHT22;38827;53.024;6.596;2022-12-17T13:53:58;1.20;79.30
52963;DHT22;38827;53.024;6.596;2022-12-17T13:56:28;1.20;79.20
52963;DHT22;38827;53.024;6.596;2022-12-17T13:58:56;1.30;79.00
52963;DHT22;38827;53.024;6.596;2022-12-17T14:01:22;1.30;78.80
52963;DHT22;38827;53.024;6.596;2022-12-17T14:03:53;1.30;78.70
52963;DHT22;38827;53.024;6.596;2022-12-17T14:06:22;1.30;78.70
52963;DHT22;38827;53.024;6.596;2022-12-17T14:08:50;1.20;78.70
52963;DHT22;38827;53.024;6.596;2022-12-17T14:11:36;1.20;78.90
52963;DHT22;38827;53.024;6.596;2022-12-17T14:14:33;1.10;79.10
52963;DHT22;38827;53.024;6.596;2022-12-17T14:17:00;1.00;79.10
52963;DHT22;38827;53.024;6.596;2022-12-17T14:19:26;0.90;79.20
52963;DHT22;38827;53.024;6.596;2022-12-17T14:21:53;0.90;79.40
52963;DHT22;38827;53.024;6.596;2022-12-17T14:24:21;0.80;79.40
52963;DHT22;38827;53.024;6.596;2022-12-17T14:26:52;0.80;79.60
52963;DHT22;38827;53.024;6.596;2022-12-17T14:29:27;0.70;79.60
52963;DHT22;38827;53.024;6.596;2022-12-17T14:31:56;0.60;79.80
52963;DHT22;38827;53.024;6.596;2022-12-17T14:34:23;0.60;80.10
52963;DHT22;38827;53.024;6.596;2022-12-17T14:36:57;0.50;80.10
52963;DHT22;38827;53.024;6.596;2022-12-17T14:39:26;0.40;80.20
52963;DHT22;38827;53.024;6.596;2022-12-17T14:41:55;0.30;80.50
52963;DHT22;38827;53.024;6.596;2022-12-17T14:47:24;0.20;80.70
52963;DHT22;38827;53.024;6.596;2022-12-17T14:55:30;0.00;81.30
52963;DHT22;38827;53.024;6.596;2022-12-17T15:00:40;-0.20;81.50
52963;DHT22;38827;53.024;6.596;2022-12-17T15:03:26;-0.20;81.70
52963;DHT22;38827;53.024;6.596;2022-12-17T15:05:59;-0.20;81.90
52963;DHT22;38827;53.024;6.596;2022-12-17T15:08:31;-0.20;82.00
52963;DHT22;38827;53.024;6.596;2022-12-17T15:10:57;-0.30;82.00
52963;DHT22;38827;53.024;6.596;2022-12-17T15:13:23;-0.30;82.20
52963;DHT22;38827;53.024;6.596;2022-12-17T15:15:49;-0.30;82.20
52963;DHT22;38827;53.024;6.596;2022-12-17T15:18:14;-0.30;82.30
52963;DHT22;38827;53.024;6.596;2022-12-17T15:20:40;-0.30;82.40
52963;DHT22;38827;53.024;6.596;2022-12-17T15:23:16;-0.30;82.40
52963;DHT22;38827;53.024;6.596;2022-12-17T15:25:43;-0.30;82.40
52963;DHT22;38827;53.024;6.596;2022-12-17T15:28:09;-0.40;82.70
52963;DHT22;38827;53.024;6.596;2022-12-17T15:30:36;-0.40;82.70
52963;DHT22;38827;53.024;6.596;2022-12-17T15:33:01;-0.40;82.70
52963;DHT22;38827;53.024;6.596;2022-12-17T15:35:28;-0.40;82.80
52963;DHT22;38827;53.024;6.596;2022-12-17T15:37:54;-0.40;82.70
52963;DHT22;38827;53.024;6.596;2022-12-17T15:40:19;-0.40;82.80
52963;DHT22;38827;53.024;6.596;2022-12-17T15:42:45;-0.40;82.70
52963;DHT22;38827;53.024;6.596;2022-12-17T15:45:30;-0.50;82.80
52963;DHT22;38827;53.024;6.596;2022-12-17T15:47:56;-0.50;82.80
52963;DHT22;38827;53.024;6.596;2022-12-17T15:50:25;-0.50;82.70
52963;DHT22;38827;53.024;6.596;2022-12-17T15:52:51;-0.50;82.90
52963;DHT22;38827;53.024;6.596;2022-12-17T15:55:17;-0.60;83.00
52963;DHT22;38827;53.024;6.596;2022-12-17T15:57:42;-0.60;83.10
52963;DHT22;38827;53.024;6.596;2022-12-17T16:00:11;-0.60;83.20
52963;DHT22;38827;53.024;6.596;2022-12-17T16:02:37;-0.60;83.30
52963;DHT22;38827;53.024;6.596;2022-12-17T16:05:04;-0.60;83.30
52963;DHT22;38827;53.024;6.596;2022-12-17T16:07:29;-0.60;83.40
52963;DHT22;38827;53.024;6.596;2022-12-17T16:09:55;-0.60;83.40
52963;DHT22;38827;53.024;6.596;2022-12-17T16:12:21;-0.60;83.50
52963;DHT22;38827;53.024;6.596;2022-12-17T16:14:46;-0.60;83.40
52963;DHT22;38827;53.024;6.596;2022-12-17T16:17:30;-0.60;83.60
52963;DHT22;38827;53.024;6.596;2022-12-17T16:20:11;-0.60;83.70
52963;DHT22;38827;53.024;6.596;2022-12-17T16:22:37;-0.60;83.70
52963;DHT22;38827;53.024;6.596;2022-12-17T16:25:21;-0.70;83.70
52963;DHT22;38827;53.024;6.596;2022-12-17T16:27:46;-0.70;83.60
52963;DHT22;38827;53.024;6.596;2022-12-17T16:30:12;-0.80;83.70
52963;DHT22;38827;53.024;6.596;2022-12-17T16:32:50;-0.80;83.60
52963;DHT22;38827;53.024;6.596;2022-12-17T16:37:57;-0.90;83.80
52963;DHT22;38827;53.024;6.596;2022-12-17T16:40:38;-0.90;83.80
52963;DHT22;38827;53.024;6.596;2022-12-17T16:43:10;-0.90;83.90
52963;DHT22;38827;53.024;6.596;2022-12-17T16:45:57;-0.90;83.90
52963;DHT22;38827;53.024;6.596;2022-12-17T16:48:23;-0.90;83.90
52963;DHT22;38827;53.024;6.596;2022-12-17T16:50:50;-0.90;84.00
52963;DHT22;38827;53.024;6.596;2022-12-17T16:53:17;-0.90;84.10
52963;DHT22;38827;53.024;6.596;2022-12-17T16:55:46;-1.00;84.10
52963;DHT22;38827;53.024;6.596;2022-12-17T16:58:16;-1.00;84.10
52963;DHT22;38827;53.024;6.596;2022-12-17T17:01:05;-1.00;84.40
52963;DHT22;38827;53.024;6.596;2022-12-17T17:03:31;-1.00;84.20
52963;DHT22;38827;53.024;6.596;2022-12-17T17:06:02;-1.00;84.40
52963;DHT22;38827;53.024;6.596;2022-12-17T17:08:29;-1.10;84.50
52963;DHT22;38827;53.024;6.596;2022-12-17T17:10:54;-1.10;84.70
52963;DHT22;38827;53.024;6.596;2022-12-17T17:13:20;-1.10;84.60
52963;DHT22;38827;53.024;6.596;2022-12-17T17:15:46;-1.10;84.50
52963;DHT22;38827;53.024;6.596;2022-12-17T17:18:11;-1.10;84.60
52963;DHT22;38827;53.024;6.596;2022-12-17T17:20:37;-1.10;84.60
52963;DHT22;38827;53.024;6.596;2022-12-17T17:23:03;-1.10;84.60
52963;DHT22;38827;53.024;6.596;2022-12-17T17:25:28;-1.20;84.60
52963;DHT22;38827;53.024;6.596;2022-12-17T17:27:54;-1.20;84.70
52963;DHT22;38827;53.024;6.596;2022-12-17T17:30:20;-1.30;84.80
52963;DHT22;38827;53.024;6.596;2022-12-17T17:32:45;-1.30;84.90
52963;DHT22;38827;53.024;6.596;2022-12-17T17:35:11;-1.30;84.90
52963;DHT22;38827;53.024;6.596;2022-12-17T17:37:37;-1.30;85.00
52963;DHT22;38827;53.024;6.596;2022-12-17T17:40:03;-1.30;84.90
52963;DHT22;38827;53.024;6.596;2022-12-17T17:42:28;-1.30;85.00
52963;DHT22;38827;53.024;6.596;2022-12-17T17:44:54;-1.30;85.00
52963;DHT22;38827;53.024;6.596;2022-12-17T17:47:20;-1.30;84.90
52963;DHT22;38827;53.024;6.596;2022-12-17T17:49:45;-1.30;85.00
52963;DHT22;38827;53.024;6.596;2022-12-17T17:52:11;-1.40;85.10
52963;DHT22;38827;53.024;6.596;2022-12-17T17:54:37;-1.40;85.20
52963;DHT22;38827;53.024;6.596;2022-12-17T17:57:03;-1.40;85.20
52963;DHT22;38827;53.024;6.596;2022-12-17T17:59:29;-1.40;85.30
52963;DHT22;38827;53.024;6.596;2022-12-17T18:01:55;-1.40;85.30
52963;DHT22;38827;53.024;6.596;2022-12-17T18:04:21;-1.40;85.30
52963;DHT22;38827;53.024;6.596;2022-12-17T18:06:48;-1.40;85.30
52963;DHT22;38827;53.024;6.596;2022-12-17T18:09:14;-1.40;85.30
52963;DHT22;38827;53.024;6.596;2022-12-17T18:11:41;-1.40;85.40
52963;DHT22;38827;53.024;6.596;2022-12-17T18:14:08;-1.40;85.40
52963;DHT22;38827;53.024;6.596;2022-12-17T18:16:46;-1.40;85.40
52963;DHT22;38827;53.024;6.596;2022-12-17T18:19:17;-1.40;85.60
52963;DHT22;38827;53.024;6.596;2022-12-17T18:21:43;-1.40;85.40
52963;DHT22;38827;53.024;6.596;2022-12-17T18:24:13;-1.40;85.40
52963;DHT22;38827;53.024;6.596;2022-12-17T18:26:41;-1.50;85.40
52963;DHT22;38827;53.024;6.596;2022-12-17T18:29:14;-1.50;85.40
52963;DHT22;38827;53.024;6.596;2022-12-17T18:31:44;-1.50;85.50
52963;DHT22;38827;53.024;6.596;2022-12-17T18:34:12;-1.40;85.60
52963;DHT22;38827;53.024;6.596;2022-12-17T18:36:41;-1.40;85.50